sensor_id;sensor_type;location;lat;lon;timestamp;temperature;humidity
20045;DHT22;10183;47.808;9.476;2023-03-23T00:01:58;8.00;99.90
20045;DHT22;10183;47.808;9.476;2023-03-23T00:04:25;8.20;99.90
20045;DHT22;10183;47.808;9.476;2023-03-23T00:06:52;8.30;99.90
20045;DHT22;10183;47.808;9.476;2023-03-23T00:09:19;8.40;99.90
20045;DHT22;10183;47.808;9.476;2023-03-23T00:11:50;8.50;99.90
20045;DHT22;10183;47.808;9.476;2023-03-23T00:14:17;8.50;99.90
20045;DHT22;10183;47.808;9.476;2023-03-23T00:16:48;8.50;99.90
20045;DHT22;10183;47.808;9.476;2023-03-23T00:19:16;8.50;99.90
20045;DHT22;10183;47.808;9.476;2023-03-23T00:21:45;8.50;99.90
20045;DHT22;10183;47.808;9.476;2023-03-23T00:24:17;8.60;99.90
20045;DHT22;10183;47.808;9.476;2023-03-23T00:26:48;8.60;99.90
20045;DHT22;10183;47.808;9.476;2023-03-23T00:29:22;8.50;99.90
20045;DHT22;10183;47.808;9.476;2023-03-23T00:31:49;8.40;99.90
20045;DHT22;10183;47.808;9.476;2023-03-23T00:34:18;8.00;99.90
20045;DHT22;10183;47.808;9.476;2023-03-23T00:36:50;7.70;99.90
20045;DHT22;10183;47.808;9.476;2023-03-23T00:39:17;7.20;99.90
20045;DHT22;10183;47.808;9.476;2023-03-23T00:41:43;6.90;99.90
20045;DHT22;10183;47.808;9.476;2023-03-23T00:44:10;6.80;99.90
20045;DHT22;10183;47.808;9.476;2023-03-23T00:46:46;6.80;99.90
20045;DHT22;10183;47.808;9.476;2023-03-23T00:49:16;6.80;99.90
20045;DHT22;10183;47.808;9.476;2023-03-23T00:51:43;6.50;99.90
20045;DHT22;10183;47.808;9.476;2023-03-23T00:54:10;6.40;99.90
20045;DHT22;10183;47.808;9.476;2023-03-23T00:56:38;6.40;99.90
20045;DHT22;10183;47.808;9.476;2023-03-23T00:59:07;6.40;99.90
20045;DHT22;10183;47.808;9.476;2023-03-23T01:01:34;6.40;99.90
20045;DHT22;10183;47.808;9.476;2023-03-23T01:04:01;6.50;99.90
20045;DHT22;10183;47.808;9.476;2023-03-23T01:06:37;6.40;99.90
20045;DHT22;10183;47.808;9.476;2023-03-23T01:09:08;6.40;99.90
20045;DHT22;10183;47.808;9.476;2023-03-23T01:11:35;6.60;99.90
20045;DHT22;10183;47.808;9.476;2023-03-23T01:14:01;6.60;99.90
20045;DHT22;10183;47.808;9.476;2023-03-23T01:16:28;6.70;99.90
20045;DHT22;10183;47.808;9.476;2023-03-23T01:18:54;6.80;99.90
20045;DHT22;10183;47.808;9.476;2023-03-23T01:21:21;6.90;99.90
20045;DHT22;10183;47.808;9.476;2023-03-23T01:23:48;6.80;99.90
20045;DHT22;10183;47.808;9.476;2023-03-23T01:26:20;7.00;99.90
20045;DHT22;10183;47.808;9.476;2023-03-23T01:28:48;7.00;99.90
20045;DHT22;10183;47.808;9.476;2023-03-23T01:31:16;7.10;99.90
20045;DHT22;10183;47.808;9.476;2023-03-23T01:33:43;7.20;99.90
20045;DHT22;10183;47.808;9.476;2023-03-23T01:36:18;7.20;99.90
20045;DHT22;10183;47.808;9.476;2023-03-23T01:38:47;7.20;99.90
20045;DHT22;10183;47.808;9.476;2023-03-23T01:41:15;7.40;99.90
20045;DHT22;10183;47.808;9.476;2023-03-23T01:44:00;7.40;99.90
20045;DHT22;10183;47.808;9.476;2023-03-23T01:46:32;7.50;99.90
20045;DHT22;10183;47.808;9.476;2023-03-23T01:49:23;7.60;99.90
20045;DHT22;10183;47.808;9.476;2023-03-23T01:51:56;7.70;99.90
20045;DHT22;10183;47.808;9.476;2023-03-23T01:54:24;7.80;99.90
20045;DHT22;10183;47.808;9.476;2023-03-23T01:56:55;7.70;99.90
20045;DHT22;10183;47.808;9.476;2023-03-23T01:59:23;7.70;99.90
20045;DHT22;10183;47.808;9.476;2023-03-23T02:01:52;7.70;99.90
20045;DHT22;10183;47.808;9.476;2023-03-23T02:04:20;7.70;99.90
20045;DHT22;10183;47.808;9.476;2023-03-23T02:06:47;7.70;99.90
20045;DHT22;10183;47.808;9.476;2023-03-23T02:09:14;7.70;99.90
20045;DHT22;10183;47.808;9.476;2023-03-23T02:11:43;7.80;99.90
20045;DHT22;10183;47.808;9.476;2023-03-23T02:14:10;7.90;99.90
20045;DHT22;10183;47.808;9.476;2023-03-23T02:16:58;8.10;99.90
20045;DHT22;10183;47.808;9.476;2023-03-23T02:23:20;8.30;99.90
20045;DHT22;10183;47.808;9.476;2023-03-23T02:28:54;8.40;99.90
20045;DHT22;10183;47.808;9.476;2023-03-23T02:34:00;8.50;99.90
20045;DHT22;10183;47.808;9.476;2023-03-23T02:36:38;8.50;99.90
20045;DHT22;10183;47.808;9.476;2023-03-23T02:39:11;8.50;99.90
20045;DHT22;10183;47.808;9.476;2023-03-23T02:41:47;8.50;99.90
20045;DHT22;10183;47.808;9.476;2023-03-23T02:44:15;8.60;99.90
20045;DHT22;10183;47.808;9.476;2023-03-23T02:46:43;8.50;99.90
20045;DHT22;10183;47.808;9.476;2023-03-23T02:49:12;8.50;99.90
20045;DHT22;10183;47.808;9.476;2023-03-23T02:51:40;8.50;99.90
20045;DHT22;10183;47.808;9.476;2023-03-23T02:54:09;8.60;99.90
20045;DHT22;10183;47.808;9.476;2023-03-23T02:56:36;8.60;99.90
20045;DHT22;10183;47.808;9.476;2023-03-23T02:59:02;8.90;99.90
20045;DHT22;10183;47.808;9.476;2023-03-23T03:03:56;8.90;99.90
20045;DHT22;10183;47.808;9.476;2023-03-23T03:12:06;8.80;99.90
20045;DHT22;10183;47.808;9.476;2023-03-23T03:14:45;8.80;99.90
20045;DHT22;10183;47.808;9.476;2023-03-23T03:17:26;8.90;99.90
20045;DHT22;10183;47.808;9.476;2023-03-23T03:20:01;8.90;99.90
20045;DHT22;10183;47.808;9.476;2023-03-23T03:22:39;9.00;99.90
20045;DHT22;10183;47.808;9.476;2023-03-23T03:25:09;9.00;99.90
20045;DHT22;10183;47.808;9.476;2023-03-23T03:27:40;9.10;99.90
20045;DHT22;10183;47.808;9.476;2023-03-23T03:30:09;9.10;99.90
20045;DHT22;10183;47.808;9.476;2023-03-23T03:32:45;9.20;99.90
20045;DHT22;10183;47.808;9.476;2023-03-23T03:35:12;9.20;99.90
20045;DHT22;10183;47.808;9.476;2023-03-23T03:37:39;9.10;99.90
20045;DHT22;10183;47.808;9.476;2023-03-23T03:40:07;9.00;99.90
20045;DHT22;10183;47.808;9.476;2023-03-23T03:42:41;9.00;99.90
20045;DHT22;10183;47.808;9.476;2023-03-23T03:45:10;8.90;99.90
20045;DHT22;10183;47.808;9.476;2023-03-23T03:47:36;8.70;99.90
20045;DHT22;10183;47.808;9.476;2023-03-23T03:50:03;8.60;99.90
20045;DHT22;10183;47.808;9.476;2023-03-23T03:52:29;8.60;99.90
20045;DHT22;10183;47.808;9.476;2023-03-23T03:54:56;8.50;99.90
20045;DHT22;10183;47.808;9.476;2023-03-23T03:57:23;8.60;99.90
20045;DHT22;10183;47.808;9.476;2023-03-23T03:59:49;8.60;99.90
20045;DHT22;10183;47.808;9.476;2023-03-23T04:02:15;8.70;99.90
20045;DHT22;10183;47.808;9.476;2023-03-23T04:04:49;8.80;99.90
20045;DHT22;10183;47.808;9.476;2023-03-23T04:07:18;8.90;99.90
20045;DHT22;10183;47.808;9.476;2023-03-23T04:09:45;8.80;99.90
20045;DHT22;10183;47.808;9.476;2023-03-23T04:12:14;8.70;99.90
20045;DHT22;10183;47.808;9.476;2023-03-23T04:14:40;8.60;99.90
20045;DHT22;10183;47.808;9.476;2023-03-23T04:17:07;8.60;99.90
20045;DHT22;10183;47.808;9.476;2023-03-23T04:19:36;8.60;99.90
20045;DHT22;10183;47.808;9.476;2023-03-23T04:22:04;8.60;99.90
20045;DHT22;10183;47.808;9.476;2023-03-23T04:24:30;8.60;99.90
20045;DHT22;10183;47.808;9.476;2023-03-23T04:26:59;8.50;99.90
20045;DHT22;10183;47.808;9.476;2023-03-23T04:29:25;8.60;99.90
20045;DHT22;10183;47.808;9.476;2023-03-23T04:31:52;8.60;99.90
20045;DHT22;10183;47.808;9.476;2023-03-23T04:34:19;8.60;99.90
20045;DHT22;10183;47.808;9.476;2023-03-23T04:36:45;8.60;99.90
20045;DHT22;10183;47.808;9.476;2023-03-23T04:39:12;8.50;99.90
20045;DHT22;10183;47.808;9.476;2023-03-23T04:41:40;8.50;99.90
20045;DHT22;10183;47.808;9.476;2023-03-23T04:44:06;8.50;99.90
20045;DHT22;10183;47.808;9.476;2023-03-23T04:46:33;8.50;99.90
20045;DHT22;10183;47.808;9.476;2023-03-23T04:48:59;8.30;99.90
20045;DHT22;10183;47.808;9.476;2023-03-23T04:51:28;8.40;99.90
20045;DHT22;10183;47.808;9.476;2023-03-23T04:53:54;8.30;99.90
20045;DHT22;10183;47.808;9.476;2023-03-23T04:56:21;8.30;99.90
20045;DHT22;10183;47.808;9.476;2023-03-23T04:58:47;8.30;99.90
20045;DHT22;10183;47.808;9.476;2023-03-23T05:01:13;8.30;99.90
20045;DHT22;10183;47.808;9.476;2023-03-23T05:03:40;8.30;99.90
20045;DHT22;10183;47.808;9.476;2023-03-23T05:06:07;8.30;99.90
20045;DHT22;10183;47.808;9.476;2023-03-23T05:08:33;8.40;99.90
20045;DHT22;10183;47.808;9.476;2023-03-23T05:11:00;8.30;99.90
20045;DHT22;10183;47.808;9.476;2023-03-23T05:13:28;8.30;99.90
20045;DHT22;10183;47.808;9.476;2023-03-23T05:15:54;8.30;99.90
20045;DHT22;10183;47.808;9.476;2023-03-23T05:18:21;8.30;99.90
20045;DHT22;10183;47.808;9.476;2023-03-23T05:20:48;8.30;99.90
20045;DHT22;10183;47.808;9.476;2023-03-23T05:23:15;8.20;99.90
20045;DHT22;10183;47.808;9.476;2023-03-23T05:25:41;8.20;99.90
20045;DHT22;10183;47.808;9.476;2023-03-23T05:28:11;8.20;99.90
20045;DHT22;10183;47.808;9.476;2023-03-23T05:30:38;8.20;99.90
20045;DHT22;10183;47.808;9.476;2023-03-23T05:33:05;8.20;99.90
20045;DHT22;10183;47.808;9.476;2023-03-23T05:35:32;8.20;99.90
20045;DHT22;10183;47.808;9.476;2023-03-23T05:37:58;8.10;99.90
20045;DHT22;10183;47.808;9.476;2023-03-23T05:40:25;8.10;99.90
20045;DHT22;10183;47.808;9.476;2023-03-23T05:42:52;8.10;99.90
20045;DHT22;10183;47.808;9.476;2023-03-23T05:45:18;8.00;99.90
20045;DHT22;10183;47.808;9.476;2023-03-23T05:47:45;8.00;99.90
20045;DHT22;10183;47.808;9.476;2023-03-23T05:50:13;8.00;99.90
20045;DHT22;10183;47.808;9.476;2023-03-23T05:52:39;8.00;99.90
20045;DHT22;10183;47.808;9.476;2023-03-23T05:55:06;8.10;99.90
20045;DHT22;10183;47.808;9.476;2023-03-23T05:57:34;8.20;99.90
20045;DHT22;10183;47.808;9.476;2023-03-23T06:00:00;8.30;99.90
20045;DHT22;10183;47.808;9.476;2023-03-23T06:02:32;8.40;99.90
20045;DHT22;10183;47.808;9.476;2023-03-23T06:04:58;8.20;99.90
20045;DHT22;10183;47.808;9.476;2023-03-23T06:07:25;8.20;99.90
20045;DHT22;10183;47.808;9.476;2023-03-23T06:09:52;8.30;99.90
20045;DHT22;10183;47.808;9.476;2023-03-23T06:12:18;8.40;99.90
20045;DHT22;10183;47.808;9.476;2023-03-23T06:14:47;8.30;99.90
20045;DHT22;10183;47.808;9.476;2023-03-23T06:17:15;8.30;99.90
20045;DHT22;10183;47.808;9.476;2023-03-23T06:19:42;8.40;99.90
20045;DHT22;10183;47.808;9.476;2023-03-23T06:22:08;8.50;99.90
20045;DHT22;10183;47.808;9.476;2023-03-23T06:24:34;8.60;99.90
20045;DHT22;10183;47.808;9.476;2023-03-23T06:27:00;8.80;99.90
20045;DHT22;10183;47.808;9.476;2023-03-23T06:29:27;8.90;99.90
20045;DHT22;10183;47.808;9.476;2023-03-23T06:31:56;9.10;99.90
20045;DHT22;10183;47.808;9.476;2023-03-23T06:34:23;9.20;99.90
20045;DHT22;10183;47.808;9.476;2023-03-23T06:36:50;9.30;99.90
20045;DHT22;10183;47.808;9.476;2023-03-23T06:39:16;9.30;99.90
20045;DHT22;10183;47.808;9.476;2023-03-23T06:41:42;9.30;99.90
20045;DHT22;10183;47.808;9.476;2023-03-23T06:44:08;9.40;99.90
20045;DHT22;10183;47.808;9.476;2023-03-23T06:46:39;9.60;99.90
20045;DHT22;10183;47.808;9.476;2023-03-23T06:49:07;9.80;99.90
20045;DHT22;10183;47.808;9.476;2023-03-23T06:51:34;9.90;99.90
20045;DHT22;10183;47.808;9.476;2023-03-23T06:54:01;10.00;99.90
20045;DHT22;10183;47.808;9.476;2023-03-23T06:56:27;10.20;99.90
20045;DHT22;10183;47.808;9.476;2023-03-23T06:58:53;10.30;99.90
20045;DHT22;10183;47.808;9.476;2023-03-23T07:01:19;10.60;99.90
20045;DHT22;10183;47.808;9.476;2023-03-23T07:03:45;10.90;99.90
20045;DHT22;10183;47.808;9.476;2023-03-23T07:06:11;11.10;99.90
20045;DHT22;10183;47.808;9.476;2023-03-23T07:08:38;11.20;99.90
20045;DHT22;10183;47.808;9.476;2023-03-23T07:11:05;11.30;99.90
20045;DHT22;10183;47.808;9.476;2023-03-23T07:13:32;11.50;99.90
20045;DHT22;10183;47.808;9.476;2023-03-23T07:15:58;11.70;99.90
20045;DHT22;10183;47.808;9.476;2023-03-23T07:18:25;11.90;99.90
20045;DHT22;10183;47.808;9.476;2023-03-23T07:20:52;12.00;99.90
20045;DHT22;10183;47.808;9.476;2023-03-23T07:23:19;12.20;99.90
20045;DHT22;10183;47.808;9.476;2023-03-23T07:25:45;12.20;99.90
20045;DHT22;10183;47.808;9.476;2023-03-23T07:28:13;12.30;99.90
20045;DHT22;10183;47.808;9.476;2023-03-23T07:30:39;12.30;99.90
20045;DHT22;10183;47.808;9.476;2023-03-23T07:33:06;12.40;99.90
20045;DHT22;10183;47.808;9.476;2023-03-23T07:35:34;12.40;99.90
20045;DHT22;10183;47.808;9.476;2023-03-23T07:38:00;12.50;99.90
20045;DHT22;10183;47.808;9.476;2023-03-23T07:40:28;12.60;99.90
20045;DHT22;10183;47.808;9.476;2023-03-23T07:42:56;12.70;99.90
20045;DHT22;10183;47.808;9.476;2023-03-23T07:45:23;12.70;99.90
20045;DHT22;10183;47.808;9.476;2023-03-23T07:47:50;12.80;99.90
20045;DHT22;10183;47.808;9.476;2023-03-23T07:50:17;12.90;99.90
20045;DHT22;10183;47.808;9.476;2023-03-23T07:52:47;12.90;99.90
20045;DHT22;10183;47.808;9.476;2023-03-23T07:55:13;13.10;99.90
20045;DHT22;10183;47.808;9.476;2023-03-23T07:57:44;13.10;99.90
20045;DHT22;10183;47.808;9.476;2023-03-23T08:00:11;13.10;99.90
20045;DHT22;10183;47.808;9.476;2023-03-23T08:02:40;13.20;99.90
20045;DHT22;10183;47.808;9.476;2023-03-23T08:05:07;13.30;99.90
20045;DHT22;10183;47.808;9.476;2023-03-23T08:07:34;13.40;99.90
20045;DHT22;10183;47.808;9.476;2023-03-23T08:10:02;13.40;99.90
20045;DHT22;10183;47.808;9.476;2023-03-23T08:12:28;13.70;99.90
20045;DHT22;10183;47.808;9.476;2023-03-23T08:14:54;13.60;99.90
20045;DHT22;10183;47.808;9.476;2023-03-23T08:17:20;13.70;99.90
20045;DHT22;10183;47.808;9.476;2023-03-23T08:19:47;13.70;99.90
20045;DHT22;10183;47.808;9.476;2023-03-23T08:22:14;13.60;99.90
20045;DHT22;10183;47.808;9.476;2023-03-23T08:24:40;13.90;99.90
20045;DHT22;10183;47.808;9.476;2023-03-23T08:27:06;13.70;99.90
20045;DHT22;10183;47.808;9.476;2023-03-23T08:29:33;13.90;99.90
20045;DHT22;10183;47.808;9.476;2023-03-23T08:31:59;13.90;99.90
20045;DHT22;10183;47.808;9.476;2023-03-23T08:34:25;14.00;99.90
20045;DHT22;10183;47.808;9.476;2023-03-23T08:36:51;14.00;99.90
20045;DHT22;10183;47.808;9.476;2023-03-23T08:39:18;14.00;99.90
20045;DHT22;10183;47.808;9.476;2023-03-23T08:41:45;14.00;99.90
20045;DHT22;10183;47.808;9.476;2023-03-23T08:44:11;13.90;99.90
20045;DHT22;10183;47.808;9.476;2023-03-23T08:46:38;13.90;99.90
20045;DHT22;10183;47.808;9.476;2023-03-23T08:49:05;14.00;99.90
20045;DHT22;10183;47.808;9.476;2023-03-23T08:51:32;14.00;99.90
20045;DHT22;10183;47.808;9.476;2023-03-23T08:53:58;14.00;99.90
20045;DHT22;10183;47.808;9.476;2023-03-23T08:56:24;14.00;99.90
20045;DHT22;10183;47.808;9.476;2023-03-23T08:58:50;14.10;99.90
20045;DHT22;10183;47.808;9.476;2023-03-23T09:01:16;14.20;99.90
20045;DHT22;10183;47.808;9.476;2023-03-23T09:03:43;14.20;99.90
20045;DHT22;10183;47.808;9.476;2023-03-23T09:06:10;14.30;99.90
20045;DHT22;10183;47.808;9.476;2023-03-23T09:08:39;14.20;99.90
20045;DHT22;10183;47.808;9.476;2023-03-23T09:11:08;14.20;99.90
20045;DHT22;10183;47.808;9.476;2023-03-23T09:13:35;14.40;99.90
20045;DHT22;10183;47.808;9.476;2023-03-23T09:16:03;14.30;99.90
20045;DHT22;10183;47.808;9.476;2023-03-23T09:18:30;14.20;99.90
20045;DHT22;10183;47.808;9.476;2023-03-23T09:20:59;14.10;99.90
20045;DHT22;10183;47.808;9.476;2023-03-23T09:23:26;14.10;99.90
20045;DHT22;10183;47.808;9.476;2023-03-23T09:25:52;14.20;99.90
20045;DHT22;10183;47.808;9.476;2023-03-23T09:28:19;14.20;99.90
20045;DHT22;10183;47.808;9.476;2023-03-23T09:30:47;14.10;99.90
20045;DHT22;10183;47.808;9.476;2023-03-23T09:33:15;14.30;99.90
20045;DHT22;10183;47.808;9.476;2023-03-23T09:35:41;14.30;99.90
20045;DHT22;10183;47.808;9.476;2023-03-23T09:38:09;14.40;99.90
20045;DHT22;10183;47.808;9.476;2023-03-23T09:49:11;14.80;99.90
20045;DHT22;10183;47.808;9.476;2023-03-23T09:51:50;14.70;99.90
20045;DHT22;10183;47.808;9.476;2023-03-23T09:54:34;14.80;99.90
20045;DHT22;10183;47.808;9.476;2023-03-23T09:57:03;14.90;99.90
20045;DHT22;10183;47.808;9.476;2023-03-23T09:59:44;15.10;99.90
20045;DHT22;10183;47.808;9.476;2023-03-23T10:02:24;15.10;99.90
20045;DHT22;10183;47.808;9.476;2023-03-23T10:04:55;15.00;99.90
20045;DHT22;10183;47.808;9.476;2023-03-23T10:07:24;15.30;99.90
20045;DHT22;10183;47.808;9.476;2023-03-23T10:09:56;15.40;99.90
20045;DHT22;10183;47.808;9.476;2023-03-23T10:12:44;15.70;99.90
20045;DHT22;10183;47.808;9.476;2023-03-23T10:15:16;15.60;99.90
20045;DHT22;10183;47.808;9.476;2023-03-23T10:18:20;15.60;99.90
20045;DHT22;10183;47.808;9.476;2023-03-23T10:21:00;15.80;99.90
20045;DHT22;10183;47.808;9.476;2023-03-23T10:24:00;15.30;99.90
20045;DHT22;10183;47.808;9.476;2023-03-23T10:26:52;15.30;99.90
20045;DHT22;10183;47.808;9.476;2023-03-23T10:29:29;15.40;99.90
20045;DHT22;10183;47.808;9.476;2023-03-23T10:32:01;15.50;99.90
20045;DHT22;10183;47.808;9.476;2023-03-23T10:34:35;15.30;99.90
20045;DHT22;10183;47.808;9.476;2023-03-23T10:37:25;15.70;99.90
20045;DHT22;10183;47.808;9.476;2023-03-23T10:39:58;15.90;99.90
20045;DHT22;10183;47.808;9.476;2023-03-23T10:42:32;15.50;99.90
20045;DHT22;10183;47.808;9.476;2023-03-23T10:45:29;15.30;99.90
20045;DHT22;10183;47.808;9.476;2023-03-23T10:48:25;15.10;99.90
20045;DHT22;10183;47.808;9.476;2023-03-23T10:50:55;15.30;99.90
20045;DHT22;10183;47.808;9.476;2023-03-23T10:53:32;15.60;99.90
20045;DHT22;10183;47.808;9.476;2023-03-23T10:55:59;16.00;99.90
20045;DHT22;10183;47.808;9.476;2023-03-23T10:58:31;16.40;99.90
20045;DHT22;10183;47.808;9.476;2023-03-23T11:00:59;16.20;99.90
20045;DHT22;10183;47.808;9.476;2023-03-23T11:03:38;15.90;99.90
20045;DHT22;10183;47.808;9.476;2023-03-23T11:06:43;15.50;99.90
20045;DHT22;10183;47.808;9.476;2023-03-23T11:09:15;15.50;99.90
20045;DHT22;10183;47.808;9.476;2023-03-23T11:11:54;15.40;99.90
20045;DHT22;10183;47.808;9.476;2023-03-23T11:16:58;15.70;99.90
20045;DHT22;10183;47.808;9.476;2023-03-23T11:19:31;15.30;99.90
20045;DHT22;10183;47.808;9.476;2023-03-23T11:22:19;15.40;99.90
20045;DHT22;10183;47.808;9.476;2023-03-23T11:24:55;15.20;99.90
20045;DHT22;10183;47.808;9.476;2023-03-23T11:27:23;15.00;99.90
20045;DHT22;10183;47.808;9.476;2023-03-23T11:30:19;15.20;99.90
20045;DHT22;10183;47.808;9.476;2023-03-23T11:32:47;15.20;99.90
20045;DHT22;10183;47.808;9.476;2023-03-23T11:35:27;15.20;99.90
20045;DHT22;10183;47.808;9.476;2023-03-23T11:37:56;15.50;99.90
20045;DHT22;10183;47.808;9.476;2023-03-23T11:40:29;15.50;99.90
20045;DHT22;10183;47.808;9.476;2023-03-23T11:42:57;15.10;99.90
20045;DHT22;10183;47.808;9.476;2023-03-23T11:53:37;15.10;99.90
20045;DHT22;10183;47.808;9.476;2023-03-23T11:56:08;15.20;99.90
20045;DHT22;10183;47.808;9.476;2023-03-23T11:58:37;15.20;99.90
20045;DHT22;10183;47.808;9.476;2023-03-23T12:01:24;15.20;99.90
20045;DHT22;10183;47.808;9.476;2023-03-23T12:09:38;15.10;99.90
20045;DHT22;10183;47.808;9.476;2023-03-23T12:12:22;15.30;99.90
20045;DHT22;10183;47.808;9.476;2023-03-23T12:37:01;17.10;99.90
20045;DHT22;10183;47.808;9.476;2023-03-23T12:45:25;17.00;99.90
20045;DHT22;10183;47.808;9.476;2023-03-23T12:48:05;17.20;99.90
20045;DHT22;10183;47.808;9.476;2023-03-23T12:50:44;17.00;99.90
20045;DHT22;10183;47.808;9.476;2023-03-23T12:53:19;16.20;99.90
20045;DHT22;10183;47.808;9.476;2023-03-23T12:56:02;17.00;99.90
20045;DHT22;10183;47.808;9.476;2023-03-23T12:58:35;16.90;99.90
20045;DHT22;10183;47.808;9.476;2023-03-23T13:03:44;16.10;99.90
20045;DHT22;10183;47.808;9.476;2023-03-23T13:11:36;15.30;99.90
20045;DHT22;10183;47.808;9.476;2023-03-23T13:25:35;15.60;99.90
20045;DHT22;10183;47.808;9.476;2023-03-23T13:28:04;15.80;99.90
20045;DHT22;10183;47.808;9.476;2023-03-23T13:30:31;15.60;99.90
20045;DHT22;10183;47.808;9.476;2023-03-23T13:33:12;15.60;99.90
20045;DHT22;10183;47.808;9.476;2023-03-23T13:35:41;15.80;99.90
20045;DHT22;10183;47.808;9.476;2023-03-23T13:40:45;15.80;99.90
20045;DHT22;10183;47.808;9.476;2023-03-23T13:43:12;15.80;99.90
20045;DHT22;10183;47.808;9.476;2023-03-23T13:45:48;15.90;99.90
20045;DHT22;10183;47.808;9.476;2023-03-23T13:48:18;15.60;99.90
20045;DHT22;10183;47.808;9.476;2023-03-23T13:50:55;15.40;99.90
20045;DHT22;10183;47.808;9.476;2023-03-23T13:53:27;15.40;99.90
20045;DHT22;10183;47.808;9.476;2023-03-23T13:59:04;15.00;99.90
20045;DHT22;10183;47.808;9.476;2023-03-23T14:01:36;14.90;99.90
20045;DHT22;10183;47.808;9.476;2023-03-23T14:04:16;14.80;99.90
20045;DHT22;10183;47.808;9.476;2023-03-23T14:06:45;14.70;99.90
20045;DHT22;10183;47.808;9.476;2023-03-23T14:09:17;14.80;99.90
20045;DHT22;10183;47.808;9.476;2023-03-23T14:11:59;14.70;99.90
20045;DHT22;10183;47.808;9.476;2023-03-23T14:14:32;14.70;99.90
20045;DHT22;10183;47.808;9.476;2023-03-23T14:17:10;14.70;99.90
20045;DHT22;10183;47.808;9.476;2023-03-23T14:19:40;14.70;99.90
20045;DHT22;10183;47.808;9.476;2023-03-23T14:24:44;14.40;99.90
20045;DHT22;10183;47.808;9.476;2023-03-23T14:29:41;14.10;99.90
20045;DHT22;10183;47.808;9.476;2023-03-23T14:32:13;14.10;99.90
20045;DHT22;10183;47.808;9.476;2023-03-23T14:34:40;14.00;99.90
20045;DHT22;10183;47.808;9.476;2023-03-23T14:37:13;14.00;99.90
20045;DHT22;10183;47.808;9.476;2023-03-23T14:39:39;13.90;99.90
20045;DHT22;10183;47.808;9.476;2023-03-23T14:42:14;14.00;99.90
20045;DHT22;10183;47.808;9.476;2023-03-23T14:44:47;14.00;99.90
20045;DHT22;10183;47.808;9.476;2023-03-23T14:47:22;14.10;99.90
20045;DHT22;10183;47.808;9.476;2023-03-23T14:49:54;14.10;99.90
20045;DHT22;10183;47.808;9.476;2023-03-23T14:52:23;14.10;99.90
20045;DHT22;10183;47.808;9.476;2023-03-23T14:54:50;14.00;99.90
20045;DHT22;10183;47.808;9.476;2023-03-23T14:57:28;14.00;99.90
20045;DHT22;10183;47.808;9.476;2023-03-23T14:59:55;13.90;99.90
20045;DHT22;10183;47.808;9.476;2023-03-23T15:02:34;13.90;99.90
20045;DHT22;10183;47.808;9.476;2023-03-23T15:05:17;13.90;99.90
20045;DHT22;10183;47.808;9.476;2023-03-23T15:07:46;13.80;99.90
20045;DHT22;10183;47.808;9.476;2023-03-23T15:10:16;13.90;99.90
20045;DHT22;10183;47.808;9.476;2023-03-23T15:12:45;13.90;99.90
20045;DHT22;10183;47.808;9.476;2023-03-23T15:15:25;13.90;99.90
20045;DHT22;10183;47.808;9.476;2023-03-23T15:17:52;13.90;99.90
20045;DHT22;10183;47.808;9.476;2023-03-23T15:20:30;13.90;99.90
20045;DHT22;10183;47.808;9.476;2023-03-23T15:23:05;13.90;99.90
20045;DHT22;10183;47.808;9.476;2023-03-23T15:25:34;13.80;99.90
20045;DHT22;10183;47.808;9.476;2023-03-23T15:28:21;13.90;99.90
20045;DHT22;10183;47.808;9.476;2023-03-23T15:30:51;13.90;99.90
20045;DHT22;10183;47.808;9.476;2023-03-23T15:33:18;13.90;99.90
20045;DHT22;10183;47.808;9.476;2023-03-23T15:35:49;13.90;99.90
20045;DHT22;10183;47.808;9.476;2023-03-23T15:38:24;13.90;99.90
20045;DHT22;10183;47.808;9.476;2023-03-23T15:40:58;13.80;99.90
20045;DHT22;10183;47.808;9.476;2023-03-23T15:43:36;13.80;99.90
20045;DHT22;10183;47.808;9.476;2023-03-23T15:51:18;13.80;99.90
20045;DHT22;10183;47.808;9.476;2023-03-23T15:53:45;13.70;99.90
20045;DHT22;10183;47.808;9.476;2023-03-23T15:56:13;13.70;99.90
20045;DHT22;10183;47.808;9.476;2023-03-23T15:58:40;13.60;99.90
20045;DHT22;10183;47.808;9.476;2023-03-23T16:01:30;13.70;99.90
20045;DHT22;10183;47.808;9.476;2023-03-23T16:06:29;13.60;99.90
20045;DHT22;10183;47.808;9.476;2023-03-23T16:08:56;13.60;99.90
20045;DHT22;10183;47.808;9.476;2023-03-23T16:11:25;13.60;99.90
20045;DHT22;10183;47.808;9.476;2023-03-23T16:13:51;13.40;99.90
20045;DHT22;10183;47.808;9.476;2023-03-23T16:16:26;13.40;99.90
20045;DHT22;10183;47.808;9.476;2023-03-23T16:18:52;13.40;99.90
20045;DHT22;10183;47.808;9.476;2023-03-23T16:21:19;13.40;99.90
20045;DHT22;10183;47.808;9.476;2023-03-23T16:23:45;13.40;99.90
20045;DHT22;10183;47.808;9.476;2023-03-23T16:26:12;13.40;99.90
20045;DHT22;10183;47.808;9.476;2023-03-23T16:28:39;13.40;99.90
20045;DHT22;10183;47.808;9.476;2023-03-23T16:31:06;13.40;99.90
20045;DHT22;10183;47.808;9.476;2023-03-23T16:33:32;13.40;99.90
20045;DHT22;10183;47.808;9.476;2023-03-23T16:35:59;13.30;99.90
20045;DHT22;10183;47.808;9.476;2023-03-23T16:38:25;13.30;99.90
20045;DHT22;10183;47.808;9.476;2023-03-23T16:40:52;13.30;99.90
20045;DHT22;10183;47.808;9.476;2023-03-23T16:43:18;13.40;99.90
20045;DHT22;10183;47.808;9.476;2023-03-23T16:45:46;13.60;99.90
20045;DHT22;10183;47.808;9.476;2023-03-23T16:48:14;13.50;99.90
20045;DHT22;10183;47.808;9.476;2023-03-23T16:50:41;13.60;99.90
20045;DHT22;10183;47.808;9.476;2023-03-23T16:53:09;13.60;99.90
20045;DHT22;10183;47.808;9.476;2023-03-23T16:55:37;13.70;99.90
20045;DHT22;10183;47.808;9.476;2023-03-23T16:58:05;13.60;99.90
20045;DHT22;10183;47.808;9.476;2023-03-23T17:00:31;13.50;99.90
20045;DHT22;10183;47.808;9.476;2023-03-23T17:02:57;13.60;99.90
20045;DHT22;10183;47.808;9.476;2023-03-23T17:05:26;13.60;99.90
20045;DHT22;10183;47.808;9.476;2023-03-23T17:07:54;13.60;99.90
20045;DHT22;10183;47.808;9.476;2023-03-23T17:10:25;13.60;99.90
20045;DHT22;10183;47.808;9.476;2023-03-23T17:12:53;13.60;99.90
20045;DHT22;10183;47.808;9.476;2023-03-23T17:15:19;13.60;99.90
20045;DHT22;10183;47.808;9.476;2023-03-23T17:17:46;13.60;99.90
20045;DHT22;10183;47.808;9.476;2023-03-23T17:20:12;13.60;99.90
20045;DHT22;10183;47.808;9.476;2023-03-23T17:22:39;13.60;99.90
20045;DHT22;10183;47.808;9.476;2023-03-23T17:25:06;13.60;99.90
20045;DHT22;10183;47.808;9.476;2023-03-23T17:27:33;13.70;99.90
20045;DHT22;10183;47.808;9.476;2023-03-23T17:30:00;13.50;99.90
20045;DHT22;10183;47.808;9.476;2023-03-23T17:32:26;13.50;99.90
20045;DHT22;10183;47.808;9.476;2023-03-23T17:34:53;13.50;99.90
20045;DHT22;10183;47.808;9.476;2023-03-23T17:37:20;13.50;99.90
20045;DHT22;10183;47.808;9.476;2023-03-23T17:39:46;13.60;99.90
20045;DHT22;10183;47.808;9.476;2023-03-23T17:42:14;13.60;99.90
20045;DHT22;10183;47.808;9.476;2023-03-23T17:44:41;13.60;99.90